createdAt,value
2022-07-25T00:00:11.406Z,10.00
2022-07-25T00:02:39.497Z,10.32
2022-07-25T00:05:08.480Z,8.90
2022-07-25T00:07:36.756Z,10.02
2022-07-25T00:10:05.417Z,10.80
2022-07-25T00:12:33.482Z,8.73
2022-07-25T00:15:01.621Z,8.15
2022-07-25T00:17:31.069Z,7.97
2022-07-25T00:19:59.153Z,7.72
2022-07-25T00:22:27.190Z,7.63
2022-07-25T00:24:55.202Z,7.18
2022-07-25T00:27:23.380Z,9.95
2022-07-25T00:29:51.567Z,8.00
2022-07-25T00:32:19.710Z,8.73
2022-07-25T00:34:49.065Z,8.02
2022-07-25T00:37:17.119Z,7.97
2022-07-25T00:39:45.169Z,7.07
2022-07-25T00:42:13.239Z,7.20
2022-07-25T00:44:41.238Z,8.07
2022-07-25T00:47:09.302Z,8.45
2022-07-25T00:49:37.280Z,7.93
2022-07-25T00:52:07.204Z,8.18
2022-07-25T00:54:35.443Z,10.07
2022-07-25T00:57:05.447Z,7.43
2022-07-25T00:59:33.502Z,10.65
2022-07-25T01:02:03.817Z,7.60
2022-07-25T01:04:32.283Z,8.15
2022-07-25T01:07:01.026Z,7.40
2022-07-25T01:09:30.657Z,9.60
2022-07-25T01:11:58.696Z,7.78
2022-07-25T01:14:26.698Z,10.95
2022-07-25T01:16:54.722Z,10.20
2022-07-25T01:19:23.113Z,9.70
2022-07-25T01:21:52.606Z,8.80
2022-07-25T01:24:20.697Z,7.88
2022-07-25T01:26:48.694Z,9.45
2022-07-25T01:29:16.662Z,11.10
2022-07-25T01:31:44.656Z,13.80
2022-07-25T01:34:12.675Z,8.45
2022-07-25T01:36:40.669Z,8.25
2022-07-25T01:39:10.165Z,8.25
2022-07-25T01:41:38.364Z,9.70
2022-07-25T01:44:06.891Z,10.52
2022-07-25T01:46:35.317Z,9.63
2022-07-25T01:49:03.531Z,8.43
2022-07-25T01:51:31.726Z,8.35
2022-07-25T01:53:59.831Z,8.23
2022-07-25T01:56:29.257Z,8.55
2022-07-25T01:59:00.061Z,8.25
2022-07-25T02:01:28.350Z,8.88
2022-07-25T02:03:56.414Z,8.52
2022-07-25T02:06:24.404Z,9.40
2022-07-25T02:08:54.120Z,10.73
2022-07-25T02:11:22.266Z,9.10
2022-07-25T02:13:51.613Z,9.15
2022-07-25T02:16:19.717Z,8.60
2022-07-25T02:18:57.302Z,9.45
2022-07-25T02:21:25.959Z,8.63
2022-07-25T02:23:54.208Z,9.98
2022-07-25T02:26:22.274Z,11.30
2022-07-25T02:28:52.076Z,9.65
2022-07-25T02:31:20.220Z,11.45
2022-07-25T02:33:48.317Z,9.95
2022-07-25T02:36:16.407Z,9.98
2022-07-25T02:38:44.425Z,10.48
2022-07-25T02:41:12.473Z,11.05
2022-07-25T02:43:40.469Z,11.10
2022-07-25T02:46:09.926Z,9.95
2022-07-25T02:48:38.029Z,10.13
2022-07-25T02:51:06.241Z,10.88
2022-07-25T02:53:56.013Z,11.38
2022-07-25T02:56:22.289Z,12.27
2022-07-25T02:58:51.677Z,13.77
2022-07-25T03:01:21.080Z,16.73
2022-07-25T03:03:49.155Z,16.15
2022-07-25T03:06:17.408Z,16.00
2022-07-25T03:08:45.389Z,17.42
2022-07-25T03:11:13.892Z,14.80
2022-07-25T03:13:41.937Z,14.05
2022-07-25T03:16:10.498Z,19.85
2022-07-25T03:18:40.035Z,13.40
2022-07-25T03:21:08.565Z,12.82
2022-07-25T03:23:36.533Z,11.10
2022-07-25T03:26:04.774Z,12.63
2022-07-25T03:28:32.803Z,13.35
2022-07-25T03:31:00.790Z,12.40
2022-07-25T03:33:28.914Z,12.38
2022-07-25T03:35:58.249Z,11.57
2022-07-25T03:38:26.231Z,12.77
2022-07-25T03:40:54.243Z,13.77
2022-07-25T03:43:22.379Z,11.57
2022-07-25T03:45:50.365Z,15.23
2022-07-25T03:48:18.378Z,13.52
2022-07-25T03:50:46.343Z,12.65
2022-07-25T03:53:16.574Z,11.77
2022-07-25T03:55:44.781Z,11.73
2022-07-25T03:58:12.801Z,16.13
2022-07-25T04:00:40.821Z,13.40
2022-07-25T04:03:10.392Z,12.63
2022-07-25T04:05:38.413Z,14.05
2022-07-25T04:08:07.020Z,16.75
2022-07-25T04:10:36.409Z,12.75
2022-07-25T04:13:04.527Z,12.65
2022-07-25T04:15:32.487Z,12.07
2022-07-25T04:18:01.770Z,13.50
2022-07-25T04:20:30.898Z,13.63
2022-07-25T04:22:58.907Z,11.52
2022-07-25T04:25:26.904Z,12.70
2022-07-25T04:27:56.248Z,11.57
2022-07-25T04:30:25.021Z,16.98
2022-07-25T04:32:53.301Z,11.98
2022-07-25T04:35:21.523Z,13.43
2022-07-25T04:37:50.237Z,12.05
2022-07-25T04:40:18.191Z,11.77
2022-07-25T04:42:46.186Z,11.32
2022-07-25T04:45:17.566Z,12.63
2022-07-25T04:47:46.150Z,11.32
2022-07-25T04:50:14.470Z,11.73
2022-07-25T04:52:42.574Z,12.75
2022-07-25T04:55:10.949Z,13.65
2022-07-25T04:57:39.865Z,11.20
2022-07-25T05:00:10.778Z,11.63
2022-07-25T05:02:40.334Z,12.70
2022-07-25T05:05:20.799Z,10.15
2022-07-25T05:07:49.345Z,16.42
2022-07-25T05:10:17.426Z,11.05
2022-07-25T05:12:45.488Z,11.07
2022-07-25T05:15:14.200Z,11.98
2022-07-25T05:17:43.753Z,11.27
2022-07-25T05:20:13.073Z,11.70
2022-07-25T05:22:41.593Z,11.00
2022-07-25T05:25:11.440Z,11.25
2022-07-25T05:27:39.635Z,12.57
2022-07-25T05:30:09.370Z,12.15
2022-07-25T05:32:37.445Z,9.52
2022-07-25T05:35:08.860Z,9.90
2022-07-25T05:37:37.347Z,11.15
2022-07-25T05:40:06.458Z,10.20
2022-07-25T05:42:34.581Z,9.93
2022-07-25T05:45:02.935Z,10.85
2022-07-25T05:47:30.967Z,11.00
2022-07-25T05:49:59.209Z,10.25
2022-07-25T05:52:28.593Z,10.10
2022-07-25T05:54:56.592Z,10.65
2022-07-25T05:57:24.694Z,11.35
2022-07-25T05:59:52.689Z,11.40
2022-07-25T06:02:20.862Z,15.50
2022-07-25T06:04:48.969Z,13.38
2022-07-25T06:07:17.338Z,9.88
2022-07-25T06:09:46.758Z,11.20
2022-07-25T06:12:15.070Z,12.02
2022-07-25T06:14:43.708Z,10.18
2022-07-25T06:17:11.813Z,10.38
2022-07-25T06:19:39.869Z,9.90
2022-07-25T06:22:09.339Z,11.20
2022-07-25T06:24:37.387Z,11.70
2022-07-25T06:27:08.424Z,10.75
2022-07-25T06:29:36.410Z,16.50
2022-07-25T06:32:04.763Z,11.95
2022-07-25T06:34:32.811Z,10.93
2022-07-25T06:37:00.837Z,11.20
2022-07-25T06:39:29.120Z,13.27
2022-07-25T06:41:59.610Z,11.52
2022-07-25T06:44:29.052Z,9.70
2022-07-25T06:46:57.086Z,9.60
2022-07-25T06:49:25.141Z,11.02
2022-07-25T06:51:53.183Z,11.50
2022-07-25T06:54:21.254Z,10.60
2022-07-25T06:56:49.259Z,13.85
2022-07-25T06:59:17.299Z,10.60
2022-07-25T07:01:51.269Z,9.82
2022-07-25T07:04:19.806Z,11.13
2022-07-25T07:06:47.776Z,9.65
2022-07-25T07:09:15.847Z,11.50
2022-07-25T07:11:43.845Z,10.18
2022-07-25T07:14:11.907Z,9.30
2022-07-25T07:16:41.397Z,9.80
2022-07-25T07:19:12.071Z,10.00
2022-07-25T07:21:40.168Z,10.80
2022-07-25T07:24:22.707Z,10.05
2022-07-25T07:26:52.970Z,9.82
2022-07-25T07:29:21.034Z,10.63
2022-07-25T07:31:49.144Z,11.73
2022-07-25T07:34:18.797Z,9.88
2022-07-25T07:36:46.821Z,11.90
2022-07-25T07:39:16.553Z,21.90
2022-07-25T07:41:44.715Z,10.50
2022-07-25T07:44:12.744Z,10.32
2022-07-25T07:46:40.911Z,11.85
2022-07-25T07:49:09.517Z,14.07
2022-07-25T07:51:39.319Z,10.02
2022-07-25T07:54:24.962Z,9.85
2022-07-25T07:56:53.019Z,10.68
2022-07-25T07:59:21.965Z,16.15
2022-07-25T08:01:50.020Z,11.48
2022-07-25T08:04:18.035Z,11.82
2022-07-25T08:06:47.515Z,15.00
2022-07-25T08:09:15.561Z,10.50
2022-07-25T08:11:43.612Z,14.57
2022-07-25T08:14:11.676Z,12.65
2022-07-25T08:16:39.720Z,11.75
2022-07-25T08:19:07.776Z,10.43
2022-07-25T08:21:35.787Z,11.55
2022-07-25T08:24:06.201Z,9.88
2022-07-25T08:26:37.121Z,10.13
2022-07-25T08:29:18.805Z,10.73
2022-07-25T08:31:48.131Z,8.93
2022-07-25T08:34:16.251Z,10.18
2022-07-25T08:36:44.292Z,10.57
2022-07-25T08:39:15.801Z,9.63
2022-07-25T08:41:44.080Z,9.98
2022-07-25T08:44:15.068Z,11.15
2022-07-25T08:46:44.311Z,9.68
2022-07-25T08:49:12.835Z,10.07
2022-07-25T08:51:41.846Z,9.55
2022-07-25T08:54:11.372Z,11.02
2022-07-25T08:56:40.814Z,9.43
2022-07-25T08:59:10.138Z,9.63
2022-07-25T09:01:40.654Z,11.25
2022-07-25T09:04:10.162Z,9.23
2022-07-25T09:06:38.670Z,8.82
2022-07-25T09:09:08.539Z,9.52
2022-07-25T09:11:38.662Z,9.77
2022-07-25T09:14:10.636Z,9.43
2022-07-25T09:16:40.991Z,11.13
2022-07-25T09:19:11.708Z,8.95
2022-07-25T09:21:41.838Z,9.38
2022-07-25T09:24:12.598Z,10.30
2022-07-25T09:26:49.119Z,13.10
2022-07-25T09:29:20.068Z,11.13
2022-07-25T09:31:48.339Z,23.17
2022-07-25T09:34:21.875Z,16.92
2022-07-25T09:36:55.049Z,30.77
2022-07-25T09:39:33.341Z,10.25
2022-07-25T09:42:01.868Z,11.77
2022-07-25T09:44:31.298Z,10.45
2022-07-25T09:46:59.806Z,9.77
2022-07-25T09:49:38.109Z,10.82
2022-07-25T09:52:07.248Z,10.38
2022-07-25T09:54:36.180Z,9.25
2022-07-25T09:57:04.396Z,8.95
2022-07-25T09:59:34.389Z,9.40
2022-07-25T10:02:07.884Z,9.85
2022-07-25T10:04:56.234Z,8.50
2022-07-25T10:07:29.512Z,9.35
2022-07-25T10:10:00.526Z,8.55
2022-07-25T10:12:28.724Z,9.70
2022-07-25T10:15:10.268Z,8.80
2022-07-25T10:17:40.177Z,9.63
2022-07-25T10:20:10.433Z,10.13
2022-07-25T10:22:58.538Z,9.07
2022-07-25T10:25:27.434Z,14.35
2022-07-25T10:28:01.000Z,8.68
2022-07-25T10:30:36.154Z,9.55
2022-07-25T10:33:06.490Z,8.88
2022-07-25T10:35:34.546Z,8.32
2022-07-25T10:38:05.834Z,12.32
2022-07-25T10:40:36.682Z,11.38
2022-07-25T10:43:09.853Z,8.77
2022-07-25T10:45:51.700Z,10.65
2022-07-25T10:48:23.850Z,12.02
2022-07-25T10:50:56.309Z,8.65
2022-07-25T10:53:35.674Z,7.80
2022-07-25T10:56:11.128Z,7.57
2022-07-25T10:58:53.289Z,9.43
2022-07-25T11:01:24.698Z,7.65
2022-07-25T11:03:53.908Z,7.88
2022-07-25T11:06:32.459Z,7.70
2022-07-25T11:09:01.398Z,8.40
2022-07-25T11:11:37.278Z,8.32
2022-07-25T11:14:06.702Z,7.45
2022-07-25T11:16:36.156Z,6.63
2022-07-25T11:19:04.599Z,6.40
2022-07-25T11:21:32.847Z,6.70
2022-07-25T11:24:00.829Z,6.13
2022-07-25T11:26:28.842Z,8.50
2022-07-25T11:28:56.837Z,4.57
2022-07-25T11:31:24.873Z,3.75
2022-07-25T11:33:54.414Z,3.75
2022-07-25T11:36:22.497Z,3.90
2022-07-25T11:38:51.314Z,3.47
2022-07-25T11:41:29.945Z,4.18
2022-07-25T11:43:58.338Z,2.80
2022-07-25T11:46:26.763Z,2.83
2022-07-25T11:49:08.453Z,2.97
2022-07-25T11:51:38.666Z,3.40
2022-07-25T11:54:11.685Z,3.47
2022-07-25T11:56:45.639Z,3.20
2022-07-25T11:59:13.891Z,6.93
2022-07-25T12:01:43.885Z,4.10
2022-07-25T12:04:15.722Z,3.38
2022-07-25T12:06:44.492Z,4.88
2022-07-25T12:09:19.072Z,3.63
2022-07-25T12:11:48.712Z,4.75
2022-07-25T12:14:16.954Z,4.65
2022-07-25T12:16:45.155Z,3.88
2022-07-25T12:19:21.822Z,3.90
2022-07-25T12:21:49.989Z,3.85
2022-07-25T12:24:17.968Z,6.43
2022-07-25T12:26:46.013Z,6.38
2022-07-25T12:29:14.008Z,5.53
2022-07-25T12:31:42.043Z,6.03
2022-07-25T12:34:10.004Z,6.43
2022-07-25T12:36:43.963Z,10.38
2022-07-25T12:39:12.203Z,5.45
2022-07-25T12:41:42.400Z,6.07
2022-07-25T12:44:10.824Z,9.60
2022-07-25T12:46:40.306Z,9.65
2022-07-25T12:49:08.715Z,4.32
2022-07-25T12:51:37.060Z,5.13
2022-07-25T12:54:07.077Z,7.10
2022-07-25T12:56:35.850Z,6.78
2022-07-25T12:59:04.052Z,5.07
2022-07-25T13:01:32.284Z,4.65
2022-07-25T13:04:00.328Z,5.05
2022-07-25T13:06:28.370Z,4.82
2022-07-25T13:08:56.361Z,5.43
2022-07-25T13:11:25.706Z,5.05
2022-07-25T13:13:53.865Z,6.22
2022-07-25T13:16:23.089Z,6.53
2022-07-25T13:18:51.171Z,6.18
2022-07-25T13:21:20.890Z,4.93
2022-07-25T13:23:48.980Z,4.95
2022-07-25T13:26:17.013Z,6.78
2022-07-25T13:28:46.359Z,5.35
2022-07-25T13:31:14.443Z,5.10
2022-07-25T13:33:42.461Z,5.40
2022-07-25T13:36:10.919Z,6.07
2022-07-25T13:38:41.378Z,6.05
2022-07-25T13:41:09.395Z,7.22
2022-07-25T13:43:37.585Z,5.40
2022-07-25T13:46:07.341Z,5.75
2022-07-25T13:48:36.121Z,5.40
2022-07-25T13:51:04.734Z,5.60
2022-07-25T13:53:32.851Z,8.93
2022-07-25T13:56:01.587Z,5.55
2022-07-25T13:58:29.738Z,7.43
2022-07-25T14:00:57.845Z,6.20
2022-07-25T14:03:27.200Z,6.15
2022-07-25T14:05:55.322Z,5.75
2022-07-25T14:08:23.383Z,5.90
2022-07-25T14:10:51.361Z,5.65
2022-07-25T14:13:19.362Z,5.47
2022-07-25T14:15:47.471Z,5.75
2022-07-25T14:18:16.100Z,8.07
2022-07-25T14:20:46.502Z,6.55
2022-07-25T14:23:14.620Z,5.45
2022-07-25T14:25:42.604Z,6.53
2022-07-25T14:28:10.713Z,5.85
2022-07-25T14:30:39.701Z,4.88
2022-07-25T14:33:07.665Z,6.95
2022-07-25T14:35:36.247Z,7.03
2022-07-25T14:38:06.743Z,5.18
2022-07-25T14:40:34.864Z,6.40
2022-07-25T14:43:03.217Z,5.40
2022-07-25T14:45:31.308Z,4.63
2022-07-25T14:47:59.403Z,4.82
2022-07-25T14:50:28.332Z,4.70
2022-07-25T14:52:56.391Z,7.75
2022-07-25T14:55:25.801Z,6.90
2022-07-25T14:57:53.967Z,4.57
2022-07-25T15:00:23.810Z,5.60
2022-07-25T15:02:55.640Z,6.18
2022-07-25T15:05:23.652Z,5.63
2022-07-25T15:07:51.750Z,6.22
2022-07-25T15:10:19.773Z,7.93
2022-07-25T15:12:54.335Z,7.55
2022-07-25T15:15:30.325Z,5.95
2022-07-25T15:17:59.147Z,6.80
2022-07-25T15:20:27.115Z,5.78
2022-07-25T15:22:55.305Z,6.78
2022-07-25T15:25:59.472Z,5.60
2022-07-25T15:28:12.684Z,5.50
2022-07-25T15:30:41.939Z,9.15
2022-07-25T15:33:10.145Z,7.65
2022-07-25T15:35:38.126Z,8.40
2022-07-25T15:38:06.115Z,6.05
2022-07-25T15:40:34.212Z,6.22
2022-07-25T15:43:02.182Z,7.95
2022-07-25T15:45:33.456Z,7.18
2022-07-25T15:48:03.658Z,6.43
2022-07-25T15:50:33.527Z,6.90
2022-07-25T15:53:01.718Z,11.95
2022-07-25T15:55:29.735Z,14.45
2022-07-25T15:57:57.913Z,9.98
2022-07-25T16:00:29.649Z,7.10
2022-07-25T16:02:59.527Z,9.27
2022-07-25T16:05:27.911Z,11.77
2022-07-25T16:07:55.904Z,19.60
2022-07-25T16:10:24.018Z,11.63
2022-07-25T16:12:51.995Z,13.18
2022-07-25T16:15:20.209Z,13.43
2022-07-25T16:17:48.883Z,22.63
2022-07-25T16:20:18.286Z,18.02
2022-07-25T16:22:46.906Z,7.15
2022-07-25T16:25:14.906Z,8.25
2022-07-25T16:27:42.970Z,6.07
2022-07-25T16:30:11.890Z,8.30
2022-07-25T16:32:39.869Z,9.00
2022-07-25T16:35:08.391Z,10.50
2022-07-25T16:37:37.830Z,8.95
2022-07-25T16:40:08.135Z,6.63
2022-07-25T16:42:36.429Z,6.07
2022-07-25T16:45:05.561Z,5.82
2022-07-25T16:47:33.520Z,8.07
2022-07-25T16:50:01.790Z,8.00
2022-07-25T16:52:29.760Z,5.78
2022-07-25T16:54:59.427Z,8.82
2022-07-25T16:57:27.454Z,7.63
2022-07-25T16:59:55.483Z,7.43
2022-07-25T17:02:29.223Z,8.00
2022-07-25T17:04:57.957Z,14.05
2022-07-25T17:07:26.499Z,11.52
2022-07-25T17:09:54.806Z,5.60
2022-07-25T17:12:24.296Z,9.55
2022-07-25T17:14:52.302Z,6.13
2022-07-25T17:17:20.297Z,7.97
2022-07-25T17:19:48.306Z,8.73
2022-07-25T17:22:16.604Z,7.45
2022-07-25T17:24:44.794Z,7.97
2022-07-25T17:27:12.899Z,6.65
2022-07-25T17:29:42.565Z,6.85
2022-07-25T17:32:10.570Z,11.23
2022-07-25T17:34:38.598Z,9.90
2022-07-25T17:37:07.221Z,6.55
2022-07-25T17:39:35.824Z,10.30
2022-07-25T17:42:07.163Z,6.93
2022-07-25T17:44:35.691Z,7.65
2022-07-25T17:47:05.078Z,11.90
2022-07-25T17:49:33.130Z,9.15
2022-07-25T17:52:01.098Z,9.77
2022-07-25T17:54:29.089Z,7.75
2022-07-25T17:56:57.114Z,13.93
2022-07-25T17:59:25.233Z,9.60
2022-07-25T18:01:53.280Z,13.70
2022-07-25T18:04:23.214Z,11.10
2022-07-25T18:06:51.316Z,9.20
2022-07-25T18:09:20.311Z,7.57
2022-07-25T18:11:48.587Z,7.50
2022-07-25T18:14:16.622Z,7.10
2022-07-25T18:16:45.506Z,8.07
2022-07-25T18:19:13.761Z,9.30
2022-07-25T18:21:43.559Z,14.50
2022-07-25T18:24:11.876Z,9.63
2022-07-25T18:26:40.769Z,16.70
2022-07-25T18:29:09.605Z,10.10
2022-07-25T18:31:37.801Z,15.50
2022-07-25T18:34:06.192Z,7.65
2022-07-25T18:36:35.279Z,17.73
2022-07-25T18:39:04.911Z,11.77
2022-07-25T18:41:34.124Z,9.60
2022-07-25T18:44:02.530Z,9.88
2022-07-25T18:46:32.793Z,13.68
2022-07-25T18:49:02.129Z,8.20
2022-07-25T18:51:30.182Z,10.32
2022-07-25T18:53:58.196Z,14.95
2022-07-25T18:56:27.603Z,9.70
2022-07-25T18:58:55.588Z,12.82
2022-07-25T19:01:23.677Z,8.77
2022-07-25T19:03:51.726Z,7.40
2022-07-25T19:06:19.735Z,20.42
2022-07-25T19:08:47.940Z,15.77
2022-07-25T19:11:15.981Z,23.48
2022-07-25T19:13:50.381Z,14.13
2022-07-25T19:16:19.489Z,16.17
2022-07-25T19:18:47.949Z,10.98
2022-07-25T19:21:16.730Z,12.30
2022-07-25T19:23:50.468Z,9.90
2022-07-25T19:26:19.365Z,11.93
2022-07-25T19:28:48.866Z,9.52
2022-07-25T19:31:17.077Z,11.35
2022-07-25T19:33:46.327Z,7.55
2022-07-25T19:36:14.612Z,12.40
2022-07-25T19:38:42.735Z,9.82
2022-07-25T19:41:10.747Z,8.07
2022-07-25T19:43:38.748Z,10.77
2022-07-25T19:46:08.186Z,10.07
2022-07-25T19:48:36.354Z,6.93
2022-07-25T19:51:04.685Z,9.15
2022-07-25T19:53:33.026Z,10.25
2022-07-25T19:56:01.283Z,10.85
2022-07-25T19:58:29.300Z,7.95
2022-07-25T20:00:57.288Z,12.05
2022-07-25T20:03:26.657Z,10.95
2022-07-25T20:05:54.673Z,11.13
2022-07-25T20:08:22.713Z,8.45
2022-07-25T20:10:50.802Z,8.45
2022-07-25T20:13:18.775Z,9.13
2022-07-25T20:15:46.975Z,9.57
2022-07-25T20:18:19.308Z,7.68
2022-07-25T20:20:49.168Z,8.05
2022-07-25T20:23:17.365Z,8.73
2022-07-25T20:25:45.435Z,10.70
2022-07-25T20:28:13.551Z,8.25
2022-07-25T20:30:41.825Z,7.28
2022-07-25T20:33:10.287Z,7.88
2022-07-25T20:35:38.880Z,7.40
2022-07-25T20:38:09.480Z,7.38
2022-07-25T20:40:42.893Z,8.40
2022-07-25T20:43:14.689Z,7.00
2022-07-25T20:45:42.773Z,10.00
2022-07-25T20:48:10.812Z,9.05
2022-07-25T20:50:39.346Z,9.02
2022-07-25T20:53:09.748Z,7.55
2022-07-25T20:55:38.463Z,10.23
2022-07-25T20:58:06.527Z,6.20
2022-07-25T21:00:34.613Z,8.23
2022-07-25T21:03:02.818Z,7.90
2022-07-25T21:05:30.945Z,7.38
2022-07-25T21:07:58.969Z,4.97
2022-07-25T21:10:28.416Z,10.77
2022-07-25T21:12:56.882Z,12.75
2022-07-25T21:15:25.268Z,7.82
2022-07-25T21:17:53.311Z,7.65
2022-07-25T21:20:21.324Z,7.47
2022-07-25T21:22:49.706Z,5.65
2022-07-25T21:25:17.744Z,6.47
2022-07-25T21:27:47.108Z,5.68
2022-07-25T21:30:15.400Z,8.73
2022-07-25T21:32:44.347Z,5.88
2022-07-25T21:35:12.869Z,7.32
2022-07-25T21:37:40.883Z,6.95
2022-07-25T21:40:10.402Z,4.53
2022-07-25T21:42:38.667Z,5.97
2022-07-25T21:45:09.447Z,7.28
2022-07-25T21:47:37.436Z,4.88
2022-07-25T21:50:24.865Z,4.03
2022-07-25T21:52:53.441Z,3.85
2022-07-25T21:55:22.389Z,6.78
2022-07-25T21:57:51.243Z,4.32
2022-07-25T22:00:22.380Z,13.18
2022-07-25T22:02:50.647Z,5.18
2022-07-25T22:05:19.672Z,5.15
2022-07-25T22:07:48.524Z,3.80
2022-07-25T22:10:18.129Z,6.32
2022-07-25T22:12:46.357Z,3.55
2022-07-25T22:15:15.407Z,5.00
2022-07-25T22:17:49.520Z,5.70
2022-07-25T22:20:18.514Z,3.28
2022-07-25T22:22:46.937Z,5.70
2022-07-25T22:25:15.426Z,7.03
2022-07-25T22:27:43.439Z,5.70
2022-07-25T22:30:18.465Z,4.15
2022-07-25T22:32:48.673Z,2.85
2022-07-25T22:35:16.764Z,5.60
2022-07-25T22:37:45.035Z,5.72
2022-07-25T22:40:14.608Z,4.15
2022-07-25T22:42:42.645Z,4.13
2022-07-25T22:45:11.421Z,8.25
2022-07-25T22:47:39.578Z,2.42
2022-07-25T22:50:10.748Z,4.32
2022-07-25T22:52:38.766Z,3.53
2022-07-25T22:55:07.439Z,4.20
2022-07-25T22:57:36.843Z,5.35
2022-07-25T23:00:07.726Z,7.57
2022-07-25T23:02:35.850Z,4.93
2022-07-25T23:05:03.930Z,4.22
2022-07-25T23:07:33.331Z,4.38
2022-07-25T23:10:01.704Z,4.03
2022-07-25T23:12:29.698Z,3.22
2022-07-25T23:14:57.751Z,4.22
2022-07-25T23:17:25.790Z,7.82
2022-07-25T23:19:55.599Z,4.70
2022-07-25T23:22:27.835Z,5.53
2022-07-25T23:24:59.449Z,3.75
2022-07-25T23:27:28.378Z,3.10
2022-07-25T23:30:01.185Z,4.90
2022-07-25T23:32:29.170Z,3.40
2022-07-25T23:34:57.177Z,6.40
2022-07-25T23:37:25.205Z,3.75
2022-07-25T23:39:53.235Z,4.10
2022-07-25T23:42:22.573Z,2.97
2022-07-25T23:44:50.648Z,2.70
2022-07-25T23:47:25.377Z,5.25
2022-07-25T23:49:56.509Z,6.03
2022-07-25T23:52:24.531Z,1.67
2022-07-25T23:54:52.542Z,5.82
2022-07-25T23:57:22.527Z,3.13
2022-07-25T23:59:50.502Z,2.65
